Stolt Ami — 3EAZ5 — position and weather

sailwx.info

Track history (hours):
 
Tides and Currents Weather Stations Pressure Air Temp Water Temp Dewpoint Dewpoint Depression Visibility Wind Speed Wind Dir Waves Ship Positions

Stolt Ami

Last reported at 2017-Oct-01 19:12 UTC. Time now 2017-Oct-17 01:44 UTC.
Position N 01°12' E 103°53'.
Warning: this ship's position is 15 days out of date.

Length 143 m; draft 9.1 m.

Type: Ship (hazmat cat B). MMSI: 371392514.

Date/timePositionNaut miles runAvg speedWind from/ knotsBaromVisibWave heightAir tempDewpointWater temp
2017-Oct-01 19:12N 01°12' E 103°53'1 2.9
2017-Oct-01 19:00N 01°13' E 103°53'1 2.7
2017-Oct-01 18:30N 01°13' E 103°54'1 2.8
2017-Oct-01 18:00N 01°14' E 103°56'1 2.7
2017-Oct-01 17:30N 01°15' E 103°57'1 2.9
2017-Oct-01 17:00N 01°15' E 103°58'2 3.0
2017-Oct-01 16:30N 01°16' E 103°60'2 3.2
2017-Oct-01 16:00N 01°16' E 104°01'2 3.2
2017-Oct-01 15:28N 01°16' E 104°03'46 9.2
2017-Oct-01 10:31N 01°21' E 103°18'313.5
2017-Oct-01 10:17N 01°19' E 103°20'413.6
2017-Oct-01 09:58N 01°16' E 103°23'613.9
2017-Oct-01 09:30N 01°13' E 103°29'713.5
2017-Oct-01 09:00N 01°12' E 103°35'612.1
2017-Oct-01 08:30N 01°10' E 103°41'5 9.7
2017-Oct-01 08:00N 01°09' E 103°46'612.6
2017-Oct-01 07:30N 01°12' E 103°52'611.3
2017-Oct-01 06:58N 01°15' E 103°57'911.0
2017-Oct-01 06:08N 01°17' E 104°06'2 9.4
2017-Oct-01 05:55N 01°19' E 104°05'9 9.6
2017-Oct-01 04:58N 01°23' E 103°57'4 9.1
2017-Oct-01 04:30N 01°26' E 103°54'29 1.1
2017-Sep-30 01:57N 01°06' E 103°33'5 9.6
2017-Sep-30 01:29N 01°10' E 103°34'4 8.9
2017-Sep-30 01:01N 01°11' E 103°38'3 5.1
2017-Sep-30 00:30N 01°14' E 103°38'0 0.1
2017-Sep-30 00:00N 01°14' E 103°38'0 0.1
2017-Sep-29 23:24N 01°14' E 103°38'0 0.0
2017-Sep-29 23:00N 01°14' E 103°38'1217.6
2017-Sep-29 22:19N 01°11' E 103°50'1 1.8
2017-Sep-29 22:00N 01°12' E 103°51'1 1.8
2017-Sep-29 21:30N 01°12' E 103°52'1 1.8
2017-Sep-29 21:00N 01°13' E 103°53'1 2.0
2017-Sep-29 20:30N 01°13' E 103°53'1 2.0
2017-Sep-29 20:00N 01°13' E 103°54'1 1.9
2017-Sep-29 19:30N 01°14' E 103°55'1 2.1
2017-Sep-29 19:00N 01°14' E 103°56'1 2.0
2017-Sep-29 18:30N 01°15' E 103°57'1 2.0
2017-Sep-29 18:00N 01°15' E 103°58'2039.6
2017-Sep-29 17:30N 01°14' E 103°38'0 0.1
2017-Sep-29 17:00N 01°14' E 103°38'0 0.1
2017-Sep-29 16:27N 01°14' E 103°38'0 0.0
2017-Sep-29 15:57N 01°14' E 103°38'0 0.1
2017-Sep-29 15:27N 01°14' E 103°38'0 0.0
2017-Sep-29 14:57N 01°14' E 103°38'0 0.1
2017-Sep-29 14:30N 01°14' E 103°38'1 2.3
2017-Sep-29 14:00N 01°14' E 103°40'2 4.9
2017-Sep-29 13:30N 01°11' E 103°40'3 5.7
2017-Sep-29 13:00N 01°10' E 103°42'1 1.3
2017-Sep-29 12:30N 01°09' E 103°43'1 1.3
2017-Sep-29 12:00N 01°09' E 103°43'1 2.3
2017-Sep-29 11:30N 01°09' E 103°45'2 4.3
2017-Sep-29 11:01N 01°10' E 103°46'4 7.1
2017-Sep-29 10:30N 01°11' E 103°50'4 7.6
2017-Sep-29 10:01N 01°13' E 103°53'4 7.8
2017-Sep-29 09:31N 01°14' E 103°57'  
2017-Sep-24 02:29N 22°31' E 119°55'612.9
2017-Sep-24 02:00N 22°32' E 120°01'713.1
2017-Sep-24 01:30N 22°32' E 120°08'612.2
2017-Sep-24 01:00N 22°33' E 120°15'4 7.1
2017-Sep-24 00:29N 22°34' E 120°19'2 3.4
2017-Sep-24 00:00N 22°35' E 120°18'  
Track history (hours):
 
Tides and Currents Weather Stations Pressure Air Temp Water Temp Dewpoint Dewpoint Depression Visibility Wind Speed Wind Dir Waves Ship Positions

Stolt Ami

Last reported at 2017-Oct-01 19:12 UTC. Time now 2017-Oct-17 01:44 UTC.
Position N 01°12' E 103°53'.
Warning: this ship's position is 15 days out of date.

Length 143 m; draft 9.1 m.

Type: Ship (hazmat cat B). MMSI: 371392514.

Date/timePositionNaut miles runAvg speedWind from/ knotsBaromVisibWave heightAir tempDewpointWater temp
2017-Oct-01 19:12N 01°12' E 103°53'1 2.9
2017-Oct-01 19:00N 01°13' E 103°53'1 2.7
2017-Oct-01 18:30N 01°13' E 103°54'1 2.8
2017-Oct-01 18:00N 01°14' E 103°56'1 2.7
2017-Oct-01 17:30N 01°15' E 103°57'1 2.9
2017-Oct-01 17:00N 01°15' E 103°58'2 3.0
2017-Oct-01 16:30N 01°16' E 103°60'2 3.2
2017-Oct-01 16:00N 01°16' E 104°01'2 3.2
2017-Oct-01 15:28N 01°16' E 104°03'46 9.2
2017-Oct-01 10:31N 01°21' E 103°18'313.5
2017-Oct-01 10:17N 01°19' E 103°20'413.6
2017-Oct-01 09:58N 01°16' E 103°23'613.9
2017-Oct-01 09:30N 01°13' E 103°29'713.5
2017-Oct-01 09:00N 01°12' E 103°35'612.1
2017-Oct-01 08:30N 01°10' E 103°41'5 9.7
2017-Oct-01 08:00N 01°09' E 103°46'612.6
2017-Oct-01 07:30N 01°12' E 103°52'611.3
2017-Oct-01 06:58N 01°15' E 103°57'911.0
2017-Oct-01 06:08N 01°17' E 104°06'2 9.4
2017-Oct-01 05:55N 01°19' E 104°05'9 9.6
2017-Oct-01 04:58N 01°23' E 103°57'4 9.1
2017-Oct-01 04:30N 01°26' E 103°54'29 1.1
2017-Sep-30 01:57N 01°06' E 103°33'5 9.6
2017-Sep-30 01:29N 01°10' E 103°34'4 8.9
2017-Sep-30 01:01N 01°11' E 103°38'3 5.1
2017-Sep-30 00:30N 01°14' E 103°38'0 0.1
2017-Sep-30 00:00N 01°14' E 103°38'0 0.1
2017-Sep-29 23:24N 01°14' E 103°38'0 0.0
2017-Sep-29 23:00N 01°14' E 103°38'1217.6
2017-Sep-29 22:19N 01°11' E 103°50'1 1.8
2017-Sep-29 22:00N 01°12' E 103°51'1 1.8
2017-Sep-29 21:30N 01°12' E 103°52'1 1.8
2017-Sep-29 21:00N 01°13' E 103°53'1 2.0
2017-Sep-29 20:30N 01°13' E 103°53'1 2.0
2017-Sep-29 20:00N 01°13' E 103°54'1 1.9
2017-Sep-29 19:30N 01°14' E 103°55'1 2.1
2017-Sep-29 19:00N 01°14' E 103°56'1 2.0
2017-Sep-29 18:30N 01°15' E 103°57'1 2.0
2017-Sep-29 18:00N 01°15' E 103°58'2039.6
2017-Sep-29 17:30N 01°14' E 103°38'0 0.1
2017-Sep-29 17:00N 01°14' E 103°38'0 0.1
2017-Sep-29 16:27N 01°14' E 103°38'0 0.0
2017-Sep-29 15:57N 01°14' E 103°38'0 0.1
2017-Sep-29 15:27N 01°14' E 103°38'0 0.0
2017-Sep-29 14:57N 01°14' E 103°38'0 0.1
2017-Sep-29 14:30N 01°14' E 103°38'1 2.3
2017-Sep-29 14:00N 01°14' E 103°40'2 4.9
2017-Sep-29 13:30N 01°11' E 103°40'3 5.7
2017-Sep-29 13:00N 01°10' E 103°42'1 1.3
2017-Sep-29 12:30N 01°09' E 103°43'1 1.3
2017-Sep-29 12:00N 01°09' E 103°43'1 2.3
2017-Sep-29 11:30N 01°09' E 103°45'2 4.3
2017-Sep-29 11:01N 01°10' E 103°46'4 7.1
2017-Sep-29 10:30N 01°11' E 103°50'4 7.6
2017-Sep-29 10:01N 01°13' E 103°53'4 7.8
2017-Sep-29 09:31N 01°14' E 103°57'  
2017-Sep-24 02:29N 22°31' E 119°55'612.9
2017-Sep-24 02:00N 22°32' E 120°01'713.1
2017-Sep-24 01:30N 22°32' E 120°08'612.2
2017-Sep-24 01:00N 22°33' E 120°15'4 7.1
2017-Sep-24 00:29N 22°34' E 120°19'2 3.4
2017-Sep-24 00:00N 22°35' E 120°18'  

Dump ship's entire track history